createdAt,value
2018-11-22T12:18:07.962Z,24.43
2018-11-22T12:20:37.730Z,24.77
2018-11-22T12:23:06.946Z,24.50
2018-11-22T12:25:36.283Z,22.77
2018-11-22T12:28:05.877Z,26.30
2018-11-22T12:30:35.672Z,24.07
2018-11-22T12:33:23.033Z,23.17
2018-11-22T12:36:06.169Z,24.40
2018-11-22T12:38:44.754Z,25.33
2018-11-22T12:41:14.295Z,26.80
2018-11-22T12:43:44.059Z,21.10
2018-11-22T12:46:13.458Z,22.47
2018-11-22T12:48:43.325Z,23.83
2018-11-22T12:51:13.947Z,24.50
2018-11-22T12:53:44.507Z,23.67
2018-11-22T12:56:13.961Z,23.87
2018-11-22T12:58:43.176Z,22.10
2018-11-22T13:01:12.430Z,21.23
2018-11-22T13:03:41.938Z,21.30
2018-11-22T13:06:11.382Z,21.93
2018-11-22T13:08:40.774Z,22.10
2018-11-22T13:11:10.008Z,24.43
2018-11-22T13:13:39.224Z,23.30
2018-11-22T13:16:08.844Z,22.27
2018-11-22T13:18:38.485Z,23.73
2018-11-22T13:21:08.019Z,22.77
2018-11-22T13:23:37.236Z,23.77
2018-11-22T13:26:07.482Z,24.30
2018-11-22T13:28:36.768Z,25.90
2018-11-22T13:31:06.492Z,25.30
2018-11-22T13:33:35.760Z,27.37
2018-11-22T13:36:05.178Z,24.30
2018-11-22T13:38:34.402Z,25.10
2018-11-22T13:41:04.485Z,26.07
2018-11-22T13:43:34.154Z,24.63
2018-11-22T13:46:03.546Z,23.37
2018-11-22T13:48:32.674Z,23.57
2018-11-22T13:51:02.050Z,23.53
2018-11-22T13:53:31.238Z,26.13
2018-11-22T13:56:00.486Z,25.50
2018-11-22T13:58:29.954Z,26.30
2018-11-22T14:00:59.198Z,24.33
2018-11-22T14:03:28.350Z,25.07
2018-11-22T14:05:57.602Z,22.97
2018-11-22T14:08:27.174Z,25.40
2018-11-22T14:10:58.593Z,25.57
2018-11-22T14:13:26.214Z,24.07
2018-11-22T14:15:55.361Z,24.87
2018-11-22T14:18:24.537Z,23.13
2018-11-22T14:20:54.109Z,25.57
2018-11-22T14:23:23.408Z,21.63
2018-11-22T14:25:52.601Z,22.60
2018-11-22T14:28:21.819Z,23.33
2018-11-22T14:30:50.963Z,25.30
2018-11-22T14:33:20.186Z,25.23
2018-11-22T14:35:49.559Z,24.03
2018-11-22T14:38:18.802Z,24.53
2018-11-22T14:40:48.023Z,24.90
2018-11-22T14:43:17.642Z,26.97
2018-11-22T14:45:47.780Z,26.60
2018-11-22T14:48:16.969Z,23.30
2018-11-22T14:51:01.044Z,25.07
2018-11-22T14:53:31.309Z,27.07
2018-11-22T14:56:01.212Z,26.00
2018-11-22T14:58:30.934Z,27.80
2018-11-22T15:01:00.324Z,24.73
2018-11-22T15:03:30.030Z,24.73
2018-11-22T15:05:59.273Z,26.37
2018-11-22T15:08:28.446Z,24.23
2018-11-22T15:10:57.782Z,25.47
2018-11-22T15:13:26.957Z,24.63
2018-11-22T15:15:56.210Z,26.93
2018-11-22T15:18:25.874Z,31.20
2018-11-22T15:21:00.903Z,26.73
2018-11-22T15:23:24.657Z,26.20
2018-11-22T15:25:54.302Z,23.93
2018-11-22T15:28:23.519Z,24.67
2018-11-22T15:30:53.169Z,22.93
2018-11-22T15:33:22.298Z,21.57
2018-11-22T15:35:51.505Z,23.50
2018-11-22T15:38:20.710Z,21.60
2018-11-22T15:40:50.864Z,23.03
2018-11-22T15:43:21.091Z,20.93
2018-11-22T15:45:50.269Z,20.87
2018-11-22T15:48:19.559Z,20.67
2018-11-22T15:50:49.498Z,20.90
2018-11-22T15:53:18.018Z,18.80
2018-11-22T15:55:47.201Z,17.83
2018-11-22T15:58:16.515Z,17.63
2018-11-22T16:00:45.697Z,17.70
2018-11-22T16:03:14.850Z,21.43
2018-11-22T16:05:44.403Z,20.17
2018-11-22T16:08:13.614Z,19.57
2018-11-22T16:10:42.834Z,20.53
2018-11-22T16:13:13.036Z,20.27
2018-11-22T16:15:47.706Z,20.97
2018-11-22T16:18:17.023Z,17.67
2018-11-22T16:20:46.747Z,18.90
2018-11-22T16:23:15.965Z,20.17
2018-11-22T16:25:45.186Z,18.03
2018-11-22T16:28:14.366Z,21.00
2018-11-22T16:30:44.037Z,20.77
2018-11-22T16:33:13.197Z,19.97
2018-11-22T16:35:42.438Z,20.50
2018-11-22T16:38:12.978Z,19.17
2018-11-22T16:40:43.142Z,20.73
2018-11-22T16:43:11.982Z,21.33
2018-11-22T16:45:41.294Z,23.07
2018-11-22T16:48:12.845Z,22.23
2018-11-22T16:50:43.456Z,21.17
2018-11-22T16:53:12.614Z,22.87
2018-11-22T16:55:41.798Z,24.03
2018-11-22T16:58:11.036Z,26.80
2018-11-22T17:00:41.318Z,26.27
2018-11-22T17:03:13.282Z,25.13
2018-11-22T17:05:43.314Z,22.47
2018-11-22T17:08:12.565Z,26.43
2018-11-22T17:10:42.429Z,30.13
2018-11-22T17:13:11.618Z,30.17
2018-11-22T17:15:42.007Z,31.40
2018-11-22T17:18:12.478Z,32.67
2018-11-22T17:20:41.694Z,29.23
2018-11-22T17:23:10.926Z,31.87
2018-11-22T17:25:40.634Z,32.00
2018-11-22T17:28:10.313Z,31.57
2018-11-22T17:30:41.942Z,35.30
2018-11-22T17:33:11.221Z,32.50
2018-11-22T17:35:41.400Z,32.93
2018-11-22T17:38:11.461Z,32.90
2018-11-22T17:40:42.271Z,33.07
2018-11-22T17:43:11.389Z,32.80
2018-11-22T17:45:42.252Z,36.13
2018-11-22T17:48:11.676Z,33.23
2018-11-22T17:50:42.490Z,30.93
2018-11-22T17:53:12.717Z,32.80
2018-11-22T17:55:42.490Z,31.80
2018-11-22T17:58:11.895Z,36.53
2018-11-22T18:00:43.810Z,36.47
2018-11-22T18:03:13.154Z,36.57
2018-11-22T18:05:42.286Z,34.33
2018-11-22T18:08:11.354Z,31.53
2018-11-22T18:10:41.558Z,33.83
2018-11-22T18:13:10.646Z,34.90
2018-11-22T18:15:44.957Z,31.83
2018-11-22T18:18:14.374Z,36.80
2018-11-22T18:20:43.490Z,36.93
2018-11-22T18:23:13.210Z,32.73
2018-11-22T18:25:42.322Z,35.80
2018-11-22T18:28:11.413Z,34.37
2018-11-22T18:30:40.634Z,33.77
2018-11-22T18:33:10.110Z,34.33
2018-11-22T18:35:39.262Z,32.23
2018-11-22T18:38:08.366Z,33.30
2018-11-22T18:40:38.883Z,30.97
2018-11-22T18:43:08.002Z,36.33
2018-11-22T18:45:40.556Z,30.10
2018-11-22T18:48:11.718Z,34.50
2018-11-22T18:50:41.296Z,33.03
2018-11-22T18:53:11.384Z,33.13
2018-11-22T18:55:39.781Z,35.90
2018-11-22T18:58:08.944Z,33.07
2018-11-22T19:00:39.869Z,35.97
2018-11-22T19:03:12.453Z,32.90
2018-11-22T19:05:41.621Z,31.60
2018-11-22T19:08:10.662Z,32.57
2018-11-22T19:10:40.932Z,36.07
2018-11-22T19:13:11.405Z,35.37
2018-11-22T19:15:42.003Z,38.37
2018-11-22T19:18:12.286Z,37.00
2018-11-22T19:20:43.258Z,35.03
2018-11-22T19:23:13.345Z,35.70
2018-11-22T19:25:42.441Z,41.03
2018-11-22T19:28:12.230Z,37.47
2018-11-22T19:30:42.982Z,45.07
2018-11-22T19:33:13.643Z,41.17
2018-11-22T19:35:44.790Z,53.73
2018-11-22T19:38:13.949Z,35.53
2018-11-22T19:40:43.591Z,34.20
2018-11-22T19:43:13.026Z,37.43
2018-11-22T19:45:43.839Z,36.67
2018-11-22T19:48:12.941Z,35.37
2018-11-22T19:50:42.670Z,38.97
2018-11-22T19:53:13.122Z,35.50
2018-11-22T19:55:42.271Z,38.63
2018-11-22T19:58:12.798Z,41.60
2018-11-22T20:00:41.921Z,39.13
2018-11-22T20:03:11.293Z,34.03
2018-11-22T20:05:41.634Z,37.47
2018-11-22T20:08:12.457Z,38.27
2018-11-22T20:10:42.869Z,36.53
2018-11-22T20:13:12.042Z,36.63
2018-11-22T20:15:41.242Z,38.40
2018-11-22T20:18:11.032Z,34.27
2018-11-22T20:20:40.118Z,39.13
2018-11-22T20:23:09.277Z,40.50
2018-11-22T20:25:38.333Z,39.20
2018-11-22T20:28:07.448Z,43.20
2018-11-22T20:30:38.742Z,40.83
2018-11-22T20:33:07.866Z,56.13
2018-11-22T20:35:36.933Z,43.07
2018-11-22T20:38:06.813Z,42.30
2018-11-22T20:40:35.923Z,44.37
2018-11-22T20:43:06.086Z,38.53
2018-11-22T20:45:40.801Z,39.47
2018-11-22T20:48:06.549Z,42.67
2018-11-22T20:50:36.632Z,41.37
2018-11-22T20:53:06.890Z,37.83
2018-11-22T20:55:37.682Z,40.37
2018-11-22T20:58:07.257Z,45.47
2018-11-22T21:00:37.989Z,43.07
2018-11-22T21:03:07.449Z,41.03
2018-11-22T21:05:37.590Z,37.87
2018-11-22T21:08:06.735Z,36.50
2018-11-22T21:10:36.125Z,39.90
2018-11-22T21:13:05.526Z,38.27
2018-11-22T21:15:35.393Z,40.80
2018-11-22T21:18:06.103Z,43.40
2018-11-22T21:20:36.919Z,43.30
2018-11-22T21:23:06.358Z,44.93
2018-11-22T21:25:35.451Z,41.10
2018-11-22T21:28:05.369Z,44.50
2018-11-22T21:30:35.785Z,44.17
2018-11-22T21:33:05.667Z,43.47
2018-11-22T21:35:35.166Z,44.67
2018-11-22T21:38:05.426Z,48.60
2018-11-22T21:40:34.991Z,45.40
2018-11-22T21:43:04.357Z,44.20
2018-11-22T21:45:34.183Z,42.33
2018-11-22T21:48:03.305Z,36.93
2018-11-22T21:50:32.445Z,42.27
2018-11-22T21:53:01.558Z,39.10
2018-11-22T21:55:31.092Z,35.90
2018-11-22T21:58:01.327Z,37.33
2018-11-22T22:00:35.263Z,41.03
2018-11-22T22:03:06.089Z,41.37
2018-11-22T22:05:35.240Z,43.20
2018-11-22T22:08:04.410Z,40.60
2018-11-22T22:10:33.526Z,71.40
2018-11-22T22:13:02.758Z,47.53
2018-11-22T22:15:33.210Z,48.63
2018-11-22T22:18:02.846Z,42.23
2018-11-22T22:20:33.562Z,43.07
2018-11-22T22:23:03.515Z,44.10
2018-11-22T22:25:32.969Z,41.33
2018-11-22T22:28:02.545Z,41.00
2018-11-22T22:30:33.234Z,39.33
2018-11-22T22:33:04.111Z,36.17
2018-11-22T22:35:33.274Z,36.73
2018-11-22T22:38:02.423Z,39.33
2018-11-22T22:40:32.635Z,41.30
2018-11-22T22:43:01.802Z,44.57
2018-11-22T22:45:31.905Z,42.57
2018-11-22T22:48:01.021Z,39.33
2018-11-22T22:50:30.813Z,38.57
2018-11-22T22:53:00.630Z,37.87
2018-11-22T22:55:30.416Z,39.60
2018-11-22T22:57:59.877Z,35.60
2018-11-22T23:00:34.722Z,38.10
2018-11-22T23:03:05.617Z,42.50
2018-11-22T23:05:35.054Z,38.80
2018-11-22T23:08:04.166Z,77.40
2018-11-22T23:10:33.297Z,42.17
2018-11-22T23:13:02.648Z,42.57
2018-11-22T23:15:32.674Z,41.00
2018-11-22T23:18:01.823Z,39.13
2018-11-22T23:20:33.554Z,54.17
2018-11-22T23:23:02.690Z,42.50
2018-11-22T23:25:31.870Z,36.67
2018-11-22T23:28:01.498Z,37.83
2018-11-22T23:30:31.835Z,37.03
2018-11-22T23:33:05.570Z,37.53
2018-11-22T23:35:34.698Z,37.23
2018-11-22T23:38:04.234Z,38.97
2018-11-22T23:40:34.218Z,39.00
2018-11-22T23:43:03.336Z,41.23
2018-11-22T23:45:33.163Z,41.97
2018-11-22T23:48:02.229Z,38.27
2018-11-22T23:50:32.618Z,44.87
2018-11-22T23:53:02.977Z,48.87
2018-11-22T23:55:32.046Z,55.20
2018-11-22T23:59:30.670Z,42.23
